createdAt,value
2023-01-22T00:00:53.498Z,-0.38
2023-01-22T00:01:53.375Z,-0.41
2023-01-22T00:02:53.390Z,-0.39
2023-01-22T00:03:53.439Z,-0.38
2023-01-22T00:04:53.370Z,-0.35
2023-01-22T00:05:53.328Z,-0.34
2023-01-22T00:06:53.326Z,-0.29
2023-01-22T00:07:53.298Z,-0.28
2023-01-22T00:08:53.333Z,-0.23
2023-01-22T00:09:53.275Z,-0.21
2023-01-22T00:10:53.275Z,-0.20
2023-01-22T00:11:53.266Z,-0.20
2023-01-22T00:12:53.265Z,-0.21
2023-01-22T00:13:53.228Z,-0.21
2023-01-22T00:14:53.285Z,-0.21
2023-01-22T00:15:53.212Z,-0.21
2023-01-22T00:16:53.292Z,-0.23
2023-01-22T00:17:53.188Z,-0.32
2023-01-22T00:18:53.168Z,-0.35
2023-01-22T00:19:53.149Z,-0.35
2023-01-22T00:20:53.189Z,-0.36
2023-01-22T00:21:53.134Z,-0.38
2023-01-22T00:22:53.137Z,-0.39
2023-01-22T00:23:53.137Z,-0.38
2023-01-22T00:24:53.131Z,-0.46
2023-01-22T00:25:53.106Z,-0.47
2023-01-22T00:26:53.095Z,-0.46
2023-01-22T00:27:53.087Z,-0.46
2023-01-22T00:28:53.064Z,-0.46
2023-01-22T00:29:53.042Z,-0.43
2023-01-22T00:30:53.109Z,-0.41
2023-01-22T00:31:53.137Z,-0.38
2023-01-22T00:32:53.008Z,-0.39
2023-01-22T00:33:53.003Z,-0.38
2023-01-22T00:34:52.990Z,-0.36
2023-01-22T00:35:52.973Z,-0.36
2023-01-22T00:36:54.583Z,-0.34
2023-01-22T00:37:52.931Z,-0.32
2023-01-22T00:38:52.971Z,-0.32
2023-01-22T00:39:52.909Z,-0.32
2023-01-22T00:40:52.929Z,-0.29
2023-01-22T00:41:52.898Z,-0.28
2023-01-22T00:42:52.925Z,-0.25
2023-01-22T00:43:53.133Z,-0.25
2023-01-22T00:44:52.863Z,-0.25
2023-01-22T00:45:52.834Z,-0.23
2023-01-22T00:46:53.010Z,-0.23
2023-01-22T00:47:52.801Z,-0.25
2023-01-22T00:48:52.835Z,-0.21
2023-01-22T00:49:52.772Z,-0.29
2023-01-22T00:50:52.834Z,-0.32
2023-01-22T00:51:52.759Z,-0.34
2023-01-22T00:52:52.822Z,-0.34
2023-01-22T00:53:52.749Z,-0.36
2023-01-22T00:54:52.730Z,-0.36
2023-01-22T00:55:52.710Z,-0.35
2023-01-22T00:56:52.705Z,-0.35
2023-01-22T00:57:52.696Z,-0.32
2023-01-22T00:58:52.719Z,-0.34
2023-01-22T00:59:52.672Z,-0.32
2023-01-22T01:00:52.720Z,-0.34
2023-01-22T01:01:52.665Z,-0.34
2023-01-22T01:02:52.655Z,-0.36
2023-01-22T01:03:52.638Z,-0.36
2023-01-22T01:04:52.622Z,-0.36
2023-01-22T01:05:52.591Z,-0.36
2023-01-22T01:06:52.602Z,-0.36
2023-01-22T01:07:52.607Z,-0.38
2023-01-22T01:08:52.587Z,-0.41
2023-01-22T01:09:52.609Z,-0.41
2023-01-22T01:10:52.558Z,-0.39
2023-01-22T01:11:52.508Z,-0.38
2023-01-22T01:12:52.551Z,-0.39
2023-01-22T01:13:52.499Z,-0.39
2023-01-22T01:14:52.509Z,-0.46
2023-01-22T01:15:52.482Z,-0.49
2023-01-22T01:16:52.463Z,-0.52
2023-01-22T01:17:52.453Z,-0.47
2023-01-22T01:18:52.450Z,-0.47
2023-01-22T01:19:52.485Z,-0.46
2023-01-22T01:20:52.417Z,-0.43
2023-01-22T01:21:52.393Z,-0.41
2023-01-22T01:22:52.399Z,-0.38
2023-01-22T01:23:52.368Z,-0.36
2023-01-22T01:24:52.470Z,-0.32
2023-01-22T01:25:52.369Z,-0.32
2023-01-22T01:26:52.375Z,-0.31
2023-01-22T01:27:52.320Z,-0.32
2023-01-22T01:28:52.324Z,-0.32
2023-01-22T01:29:52.291Z,-0.29
2023-01-22T01:30:52.320Z,-0.28
2023-01-22T01:31:52.311Z,-0.28
2023-01-22T01:32:52.304Z,-0.26
2023-01-22T01:33:52.244Z,-0.23
2023-01-22T01:34:52.253Z,-0.21
2023-01-22T01:35:52.219Z,-0.21
2023-01-22T01:36:52.223Z,-0.23
2023-01-22T01:37:52.214Z,-0.21
2023-01-22T01:38:52.209Z,-0.21
2023-01-22T01:39:52.171Z,-0.18
2023-01-22T01:40:52.179Z,-0.18
2023-01-22T01:41:52.138Z,-0.18
2023-01-22T01:42:52.165Z,-0.18
2023-01-22T01:43:52.135Z,-0.15
2023-01-22T01:44:52.155Z,-0.15
2023-01-22T01:45:52.106Z,-0.11
2023-01-22T01:46:52.192Z,-0.10
2023-01-22T01:47:52.090Z,-0.11
2023-01-22T01:48:52.115Z,-0.11
2023-01-22T01:49:52.077Z,-0.10
2023-01-22T01:50:52.122Z,-0.11
2023-01-22T01:51:52.036Z,-0.13
2023-01-22T01:52:52.035Z,-0.13
2023-01-22T01:53:52.009Z,-0.10
2023-01-22T01:54:52.079Z,-0.14
2023-01-22T01:55:52.013Z,-0.14
2023-01-22T01:56:52.003Z,-0.17
2023-01-22T01:57:51.947Z,-0.15
2023-01-22T01:58:51.951Z,-0.14
2023-01-22T01:59:51.918Z,-0.17
2023-01-22T02:00:51.980Z,-0.17
2023-01-22T02:01:51.915Z,-0.21
2023-01-22T02:02:51.950Z,-0.23
2023-01-22T02:03:51.878Z,-0.23
2023-01-22T02:04:51.896Z,-0.23
2023-01-22T02:05:51.909Z,-0.23
2023-01-22T02:06:51.856Z,-0.26
2023-01-22T02:07:51.813Z,-0.29
2023-01-22T02:08:51.883Z,-0.29
2023-01-22T02:09:51.820Z,-0.31
2023-01-22T02:10:51.840Z,-0.28
2023-01-22T02:11:51.792Z,-0.29
2023-01-22T02:12:51.800Z,-0.34
2023-01-22T02:13:51.753Z,-0.36
2023-01-22T02:14:51.781Z,-0.35
2023-01-22T02:15:51.726Z,-0.36
2023-01-22T02:16:51.741Z,-0.36
2023-01-22T02:17:51.786Z,-0.36
2023-01-22T02:18:51.726Z,-0.38
2023-01-22T02:19:51.705Z,-0.36
2023-01-22T02:20:51.738Z,-0.43
2023-01-22T02:21:51.646Z,-0.54
2023-01-22T02:22:51.650Z,-0.56
2023-01-22T02:23:51.635Z,-0.57
2023-01-22T02:24:51.632Z,-0.57
2023-01-22T02:25:51.603Z,-0.57
2023-01-22T02:26:51.642Z,-0.54
2023-01-22T02:27:58.637Z,-0.53
2023-01-22T02:28:51.562Z,-0.50
2023-01-22T02:29:51.578Z,-0.46
2023-01-22T02:30:51.596Z,-0.43
2023-01-22T02:31:51.585Z,-0.41
2023-01-22T02:32:51.555Z,-0.39
2023-01-22T02:33:51.532Z,-0.39
2023-01-22T02:34:51.486Z,-0.36
2023-01-22T02:35:51.505Z,-0.35
2023-01-22T02:36:51.459Z,-0.34
2023-01-22T02:37:51.498Z,-0.29
2023-01-22T02:38:51.461Z,-0.29
2023-01-22T02:39:51.456Z,-0.31
2023-01-22T02:40:51.417Z,-0.32
2023-01-22T02:41:51.434Z,-0.29
2023-01-22T02:42:51.386Z,-0.26
2023-01-22T02:43:51.417Z,-0.26
2023-01-22T02:44:51.366Z,-0.25
2023-01-22T02:45:51.389Z,-0.28
2023-01-22T02:46:51.334Z,-0.23
2023-01-22T02:47:51.394Z,-0.23
2023-01-22T02:48:51.318Z,-0.21
2023-01-22T02:49:51.333Z,-0.23
2023-01-22T02:50:51.327Z,-0.25
2023-01-22T02:51:51.299Z,-0.26
2023-01-22T02:52:51.293Z,-0.26
2023-01-22T02:53:51.260Z,-0.34
2023-01-22T02:54:51.252Z,-0.38
2023-01-22T02:55:51.243Z,-0.38
2023-01-22T02:56:51.224Z,-0.36
2023-01-22T02:57:51.224Z,-0.35
2023-01-22T02:58:51.212Z,-0.32
2023-01-22T02:59:51.206Z,-0.32
2023-01-22T03:00:51.178Z,-0.31
2023-01-22T03:01:51.228Z,-0.31
2023-01-22T03:02:51.170Z,-0.38
2023-01-22T03:03:51.152Z,-0.36
2023-01-22T03:04:51.113Z,-0.38
2023-01-22T03:05:51.157Z,-0.36
2023-01-22T03:06:51.100Z,-0.35
2023-01-22T03:07:51.146Z,-0.36
2023-01-22T03:08:51.070Z,-0.36
2023-01-22T03:09:51.080Z,-0.44
2023-01-22T03:10:51.042Z,-0.43
2023-01-22T03:11:51.052Z,-0.43
2023-01-22T03:12:51.040Z,-0.44
2023-01-22T03:13:51.068Z,-0.43
2023-01-22T03:14:50.990Z,-0.39
2023-01-22T03:15:50.995Z,-0.36
2023-01-22T03:16:51.013Z,-0.32
2023-01-22T03:17:50.983Z,-0.29
2023-01-22T03:18:50.944Z,-0.26
2023-01-22T03:19:50.975Z,-0.25
2023-01-22T03:20:50.921Z,-0.21
2023-01-22T03:21:50.933Z,-0.18
2023-01-22T03:22:50.890Z,-0.17
2023-01-22T03:23:50.908Z,-0.15
2023-01-22T03:24:50.869Z,-0.21
2023-01-22T03:25:50.923Z,-0.17
2023-01-22T03:26:50.847Z,-0.18
2023-01-22T03:27:50.859Z,-0.18
2023-01-22T03:28:50.820Z,-0.18
2023-01-22T03:29:50.825Z,-0.21
2023-01-22T03:30:50.845Z,-0.25
2023-01-22T03:31:50.868Z,-0.34
2023-01-22T03:32:50.765Z,-0.34
2023-01-22T03:33:50.783Z,-0.31
2023-01-22T03:34:50.745Z,-0.31
2023-01-22T03:35:50.784Z,-0.34
2023-01-22T03:36:50.722Z,-0.36
2023-01-22T03:37:50.724Z,-0.39
2023-01-22T03:38:50.697Z,-0.41
2023-01-22T03:39:50.726Z,-0.39
2023-01-22T03:40:50.673Z,-0.36
2023-01-22T03:41:50.701Z,-0.35
2023-01-22T03:42:50.639Z,-0.35
2023-01-22T03:43:50.647Z,-0.32
2023-01-22T03:44:50.622Z,-0.34
2023-01-22T03:45:50.672Z,-0.32
2023-01-22T03:46:50.598Z,-0.34
2023-01-22T03:47:50.625Z,-0.32
2023-01-22T03:48:50.605Z,-0.31
2023-01-22T03:49:50.581Z,-0.35
2023-01-22T03:50:50.585Z,-0.35
2023-01-22T03:51:50.564Z,-0.32
2023-01-22T03:52:50.527Z,-0.29
2023-01-22T03:53:50.552Z,-0.28
2023-01-22T03:54:50.532Z,-0.25
2023-01-22T03:55:50.501Z,-0.23
2023-01-22T03:56:50.477Z,-0.20
2023-01-22T03:57:50.490Z,-0.20
2023-01-22T03:58:50.488Z,-0.18
2023-01-22T03:59:50.469Z,-0.14
2023-01-22T04:00:50.496Z,-0.13
2023-01-22T04:01:50.428Z,-0.11
2023-01-22T04:02:50.429Z,-0.10
2023-01-22T04:03:50.412Z,-0.10
2023-01-22T04:04:50.378Z,-0.07
2023-01-22T04:05:50.392Z,-0.03
2023-01-22T04:06:50.363Z,-0.03
2023-01-22T04:07:50.401Z,-0.02
2023-01-22T04:08:50.326Z,-0.03
2023-01-22T04:09:50.364Z,-0.07
2023-01-22T04:10:50.312Z,-0.03
2023-01-22T04:11:50.322Z,-0.06
2023-01-22T04:12:50.281Z,-0.03
2023-01-22T04:13:50.322Z,-0.08
2023-01-22T04:14:50.265Z,-0.07
2023-01-22T04:15:50.270Z,-0.07
2023-01-22T04:16:50.311Z,-0.07
2023-01-22T04:17:50.237Z,-0.06
2023-01-22T04:18:50.240Z,-0.06
2023-01-22T04:19:50.229Z,0.00
2023-01-22T04:20:50.200Z,0.00
2023-01-22T04:21:50.225Z,0.00
2023-01-22T04:22:50.178Z,0.03
2023-01-22T04:23:50.160Z,0.05
2023-01-22T04:24:50.130Z,0.07
2023-01-22T04:25:50.149Z,0.07
2023-01-22T04:26:50.101Z,0.07
2023-01-22T04:27:50.149Z,0.08
2023-01-22T04:28:50.101Z,0.08
2023-01-22T04:29:50.095Z,0.08
2023-01-22T04:30:50.161Z,0.08
2023-01-22T04:31:50.086Z,0.10
2023-01-22T04:32:50.036Z,0.11
2023-01-22T04:33:50.074Z,0.10
2023-01-22T04:34:50.008Z,0.11
2023-01-22T04:35:50.008Z,0.11
2023-01-22T04:36:49.990Z,0.12
2023-01-22T04:37:50.004Z,0.16
2023-01-22T04:38:49.988Z,0.16
2023-01-22T04:39:49.975Z,0.19
2023-01-22T04:40:49.932Z,0.16
2023-01-22T04:41:49.951Z,0.18
2023-01-22T04:42:49.923Z,0.18
2023-01-22T04:43:49.912Z,0.18
2023-01-22T04:44:49.902Z,0.18
2023-01-22T04:45:49.904Z,0.16
2023-01-22T04:46:49.866Z,0.12
2023-01-22T04:47:49.890Z,0.18
2023-01-22T04:48:49.833Z,0.16
2023-01-22T04:49:49.877Z,0.18
2023-01-22T04:50:49.871Z,0.18
2023-01-22T04:51:49.825Z,0.16
2023-01-22T04:52:49.826Z,0.19
2023-01-22T04:53:49.787Z,0.18
2023-01-22T04:54:49.792Z,0.16
2023-01-22T04:55:49.790Z,0.15
2023-01-22T04:56:49.736Z,0.15
2023-01-22T04:57:49.759Z,0.15
2023-01-22T04:58:49.719Z,0.12
2023-01-22T04:59:49.725Z,0.15
2023-01-22T05:00:49.711Z,0.16
2023-01-22T05:01:49.691Z,0.16
2023-01-22T05:02:49.725Z,0.18
2023-01-22T05:03:49.703Z,0.16
2023-01-22T05:04:49.641Z,0.16
2023-01-22T05:05:49.658Z,0.16
2023-01-22T05:06:49.608Z,0.18
2023-01-22T05:07:49.618Z,0.18
2023-01-22T05:08:49.647Z,0.18
2023-01-22T05:09:49.586Z,0.18
2023-01-22T05:10:49.545Z,0.18
2023-01-22T05:11:49.579Z,0.21
2023-01-22T05:12:49.550Z,0.18
2023-01-22T05:13:49.547Z,0.21
2023-01-22T05:14:49.551Z,0.19
2023-01-22T05:15:49.645Z,0.19
2023-01-22T05:16:49.488Z,0.19
2023-01-22T05:17:49.505Z,0.21
2023-01-22T05:18:49.481Z,0.21
2023-01-22T05:19:49.472Z,0.23
2023-01-22T05:20:49.441Z,0.23
2023-01-22T05:21:49.463Z,0.23
2023-01-22T05:22:49.435Z,0.23
2023-01-22T05:23:49.438Z,0.26
2023-01-22T05:24:49.407Z,0.26
2023-01-22T05:25:49.390Z,0.25
2023-01-22T05:26:49.394Z,0.25
2023-01-22T05:27:49.386Z,0.23
2023-01-22T05:28:49.335Z,0.16
2023-01-22T05:29:49.361Z,0.16
2023-01-22T05:30:49.511Z,0.15
2023-01-22T05:31:49.342Z,0.12
2023-01-22T05:32:49.282Z,0.16
2023-01-22T05:33:49.309Z,0.16
2023-01-22T05:34:49.259Z,0.18
2023-01-22T05:35:49.259Z,0.18
2023-01-22T05:36:49.258Z,0.21
2023-01-22T05:37:49.243Z,0.21
2023-01-22T05:38:49.208Z,0.21
2023-01-22T05:39:49.228Z,0.21
2023-01-22T05:40:49.192Z,0.19
2023-01-22T05:41:49.216Z,0.19
2023-01-22T05:42:49.167Z,0.18
2023-01-22T05:43:49.182Z,0.19
2023-01-22T05:44:49.133Z,0.19
2023-01-22T05:45:49.148Z,0.22
2023-01-22T05:46:49.132Z,0.22
2023-01-22T05:47:49.134Z,0.19
2023-01-22T05:48:49.093Z,0.19
2023-01-22T05:49:49.107Z,0.19
2023-01-22T05:50:49.119Z,0.21
2023-01-22T05:51:49.092Z,0.21
2023-01-22T05:52:49.039Z,0.21
2023-01-22T05:53:49.052Z,0.23
2023-01-22T05:54:49.010Z,0.21
2023-01-22T05:55:49.028Z,0.21
2023-01-22T05:56:48.989Z,0.19
2023-01-22T05:57:49.025Z,0.19
2023-01-22T05:58:48.965Z,0.18
2023-01-22T05:59:49.008Z,0.16
2023-01-22T06:00:48.954Z,0.15
2023-01-22T06:01:48.946Z,0.16
2023-01-22T06:02:49.002Z,0.18
2023-01-22T06:03:48.941Z,0.18
2023-01-22T06:04:48.884Z,0.18
2023-01-22T06:05:48.902Z,0.19
2023-01-22T06:06:48.874Z,0.18
2023-01-22T06:07:48.901Z,0.18
2023-01-22T06:08:48.840Z,0.18
2023-01-22T06:09:48.840Z,0.16
2023-01-22T06:10:48.821Z,0.15
2023-01-22T06:11:48.830Z,0.12
2023-01-22T06:12:48.818Z,0.11
2023-01-22T06:13:48.808Z,0.11
2023-01-22T06:14:48.764Z,0.11
2023-01-22T06:15:48.869Z,0.10
2023-01-22T06:16:48.757Z,0.10
2023-01-22T06:17:48.759Z,0.11
2023-01-22T06:18:48.739Z,0.12
2023-01-22T06:19:48.734Z,0.11
2023-01-22T06:20:48.693Z,0.12
2023-01-22T06:21:48.707Z,0.10
2023-01-22T06:22:48.663Z,0.12
2023-01-22T06:23:48.673Z,0.11
2023-01-22T06:24:48.676Z,0.11
2023-01-22T06:25:48.713Z,0.08
2023-01-22T06:26:48.626Z,0.08
2023-01-22T06:27:48.647Z,0.07
2023-01-22T06:28:48.624Z,0.05
2023-01-22T06:29:48.637Z,0.03
2023-01-22T06:30:48.591Z,-0.06
2023-01-22T06:31:48.686Z,-0.10
2023-01-22T06:32:48.551Z,-0.10
2023-01-22T06:33:48.611Z,-0.08
2023-01-22T06:34:48.490Z,-0.07
2023-01-22T06:35:48.534Z,-0.07
2023-01-22T06:36:48.514Z,-0.03
2023-01-22T06:37:48.465Z,-0.03
2023-01-22T06:38:48.427Z,-0.02
2023-01-22T06:39:48.422Z,-0.03
2023-01-22T06:40:48.449Z,-0.06
2023-01-22T06:41:48.489Z,-0.03
2023-01-22T06:42:48.426Z,-0.03
2023-01-22T06:43:48.359Z,-0.06
2023-01-22T06:44:48.386Z,-0.06
2023-01-22T06:45:48.379Z,-0.08
2023-01-22T06:46:48.426Z,-0.06
2023-01-22T06:47:48.336Z,-0.07
2023-01-22T06:48:49.896Z,-0.03
2023-01-22T06:49:48.283Z,-0.06
2023-01-22T06:50:48.333Z,-0.06
2023-01-22T06:51:48.252Z,-0.02
2023-01-22T06:52:48.265Z,-0.03
2023-01-22T06:53:48.226Z,-0.02
2023-01-22T06:54:48.274Z,0.00
2023-01-22T06:55:48.202Z,0.00
2023-01-22T06:56:48.212Z,0.03
2023-01-22T06:57:48.194Z,0.03
2023-01-22T06:58:48.208Z,-0.02
2023-01-22T06:59:48.151Z,-0.07
2023-01-22T07:00:48.207Z,-0.06
2023-01-22T07:01:48.209Z,-0.06
2023-01-22T07:02:48.137Z,-0.06
2023-01-22T07:03:48.145Z,-0.03
2023-01-22T07:04:48.148Z,-0.03
2023-01-22T07:05:48.097Z,0.00
2023-01-22T07:06:48.108Z,0.01
2023-01-22T07:07:48.058Z,0.03
2023-01-22T07:08:48.091Z,0.03
2023-01-22T07:09:48.058Z,0.05
2023-01-22T07:10:48.044Z,0.10
2023-01-22T07:11:48.034Z,0.12
2023-01-22T07:12:48.014Z,0.16
2023-01-22T07:13:48.020Z,0.15
2023-01-22T07:14:48.002Z,0.18
2023-01-22T07:15:48.013Z,0.18
2023-01-22T07:16:47.964Z,0.19
2023-01-22T07:17:48.878Z,0.19
2023-01-22T07:18:47.991Z,0.18
2023-01-22T07:19:47.931Z,0.16
2023-01-22T07:20:47.971Z,0.16
2023-01-22T07:21:47.901Z,0.19
2023-01-22T07:22:47.935Z,0.19
2023-01-22T07:23:47.894Z,0.23
2023-01-22T07:24:47.879Z,0.28
2023-01-22T07:25:47.837Z,0.29
2023-01-22T07:26:47.861Z,0.32
2023-01-22T07:27:48.555Z,0.32
2023-01-22T07:28:47.823Z,0.34
2023-01-22T07:29:47.801Z,0.36
2023-01-22T07:30:47.871Z,0.36
2023-01-22T07:31:49.781Z,0.37
2023-01-22T07:32:47.769Z,0.37
2023-01-22T07:33:47.730Z,0.39
2023-01-22T07:34:47.739Z,0.41
2023-01-22T07:35:47.729Z,0.40
2023-01-22T07:36:47.728Z,0.40
2023-01-22T07:37:47.687Z,0.41
2023-01-22T07:38:47.696Z,0.41
2023-01-22T07:39:47.656Z,0.41
2023-01-22T07:40:47.695Z,0.44
2023-01-22T07:41:47.633Z,0.50
2023-01-22T07:42:47.684Z,0.55
2023-01-22T07:43:47.613Z,0.56
2023-01-22T07:44:47.616Z,0.56
2023-01-22T07:45:47.649Z,0.58
2023-01-22T07:46:47.636Z,0.59
2023-01-22T07:47:47.563Z,0.59
2023-01-22T07:48:47.588Z,0.56
2023-01-22T07:49:47.531Z,0.55
2023-01-22T07:50:47.603Z,0.56
2023-01-22T07:51:47.509Z,0.58
2023-01-22T07:52:47.511Z,0.58
2023-01-22T07:53:47.527Z,0.59
2023-01-22T07:54:47.507Z,0.58
2023-01-22T07:55:47.476Z,0.59
2023-01-22T07:56:47.497Z,0.60
2023-01-22T07:57:47.459Z,0.60
2023-01-22T07:58:47.444Z,0.62
2023-01-22T07:59:47.409Z,0.60
2023-01-22T08:00:47.462Z,0.63
2023-01-22T08:01:47.423Z,0.65
2023-01-22T08:02:47.423Z,0.66
2023-01-22T08:03:47.396Z,0.66
2023-01-22T08:04:47.391Z,0.66
2023-01-22T08:05:47.339Z,0.69
2023-01-22T08:06:47.351Z,0.70
2023-01-22T08:07:47.308Z,0.70
2023-01-22T08:08:47.357Z,0.70
2023-01-22T08:09:47.279Z,0.74
2023-01-22T08:10:47.299Z,0.74
2023-01-22T08:11:47.259Z,0.77
2023-01-22T08:12:47.260Z,0.76
2023-01-22T08:13:47.250Z,0.78
2023-01-22T08:14:47.294Z,0.78
2023-01-22T08:15:47.221Z,0.80
2023-01-22T08:16:47.374Z,0.81
2023-01-22T08:17:47.183Z,0.84
2023-01-22T08:18:47.184Z,0.86
2023-01-22T08:19:47.154Z,0.87
2023-01-22T08:20:47.214Z,0.87
2023-01-22T08:21:47.131Z,0.88
2023-01-22T08:22:47.143Z,0.88
2023-01-22T08:23:49.188Z,0.91
2023-01-22T08:24:47.161Z,0.92
2023-01-22T08:25:47.090Z,0.94
2023-01-22T08:26:47.123Z,0.95
2023-01-22T08:27:47.057Z,0.94
2023-01-22T08:28:54.129Z,0.95
2023-01-22T08:29:47.039Z,0.96
2023-01-22T08:30:47.265Z,0.96
2023-01-22T08:31:47.180Z,0.98
2023-01-22T08:32:47.028Z,0.99
2023-01-22T08:33:46.996Z,1.02
2023-01-22T08:34:47.010Z,1.02
2023-01-22T08:35:46.954Z,1.02
2023-01-22T08:36:47.003Z,0.99
2023-01-22T08:37:46.932Z,0.98
2023-01-22T08:38:46.980Z,0.96
2023-01-22T08:39:46.921Z,0.98
2023-01-22T08:40:46.922Z,0.96
2023-01-22T08:41:46.883Z,0.95
2023-01-22T08:42:46.941Z,0.92
2023-01-22T08:43:46.877Z,0.92
2023-01-22T08:44:46.894Z,0.92
2023-01-22T08:45:46.894Z,0.87
2023-01-22T08:46:46.848Z,0.84
2023-01-22T08:47:46.805Z,0.87
2023-01-22T08:48:46.845Z,0.88
2023-01-22T08:49:46.806Z,0.88
2023-01-22T08:50:46.830Z,0.88
2023-01-22T08:51:46.754Z,0.88
2023-01-22T08:52:46.761Z,0.91
2023-01-22T08:53:46.754Z,0.91
2023-01-22T08:54:46.753Z,0.92
2023-01-22T08:55:46.702Z,0.92
2023-01-22T08:56:46.716Z,0.95
2023-01-22T08:57:46.681Z,0.96
2023-01-22T08:58:46.713Z,0.96
2023-01-22T08:59:59.802Z,0.98
2023-01-22T09:00:47.673Z,0.95
2023-01-22T09:01:46.686Z,0.94
2023-01-22T09:02:46.653Z,0.94
2023-01-22T09:03:46.609Z,0.91
2023-01-22T09:04:46.645Z,0.94
2023-01-22T09:05:46.586Z,0.92
2023-01-22T09:06:46.591Z,0.91
2023-01-22T09:07:46.555Z,0.91
2023-01-22T09:08:46.566Z,0.94
2023-01-22T09:09:46.573Z,0.95
2023-01-22T09:10:46.558Z,0.96
2023-01-22T09:11:46.508Z,0.99
2023-01-22T09:12:46.532Z,1.05
2023-01-22T09:13:46.485Z,1.06
2023-01-22T09:14:46.511Z,1.08
2023-01-22T09:15:46.489Z,1.08
2023-01-22T09:16:46.539Z,1.10
2023-01-22T09:17:46.474Z,1.12
2023-01-22T09:18:46.438Z,1.13
2023-01-22T09:19:46.402Z,1.16
2023-01-22T09:20:46.419Z,1.14
2023-01-22T09:21:46.398Z,1.16
2023-01-22T09:22:46.403Z,1.17
2023-01-22T09:23:46.356Z,1.19
2023-01-22T09:24:46.374Z,1.22
2023-01-22T09:25:46.344Z,1.23
2023-01-22T09:26:46.343Z,1.23
2023-01-22T09:27:46.339Z,1.26
2023-01-22T09:28:46.318Z,1.28
2023-01-22T09:29:46.280Z,1.30
2023-01-22T09:30:46.367Z,1.32
2023-01-22T09:31:46.277Z,1.32
2023-01-22T09:32:46.264Z,1.31
2023-01-22T09:33:46.270Z,1.30
2023-01-22T09:34:46.236Z,1.32
2023-01-22T09:35:46.207Z,1.32
2023-01-22T09:36:46.237Z,1.31
2023-01-22T09:37:46.176Z,1.31
2023-01-22T09:38:46.307Z,1.32
2023-01-22T09:39:46.205Z,1.34
2023-01-22T09:40:46.212Z,1.34
2023-01-22T09:41:46.134Z,1.37
2023-01-22T09:42:46.143Z,1.41
2023-01-22T09:43:46.118Z,1.42
2023-01-22T09:44:46.117Z,1.44
2023-01-22T09:45:46.130Z,1.44
2023-01-22T09:46:46.132Z,1.42
2023-01-22T09:47:46.086Z,1.41
2023-01-22T09:48:46.061Z,1.41
2023-01-22T09:49:46.042Z,1.40
2023-01-22T09:50:46.066Z,1.37
2023-01-22T09:51:46.037Z,1.38
2023-01-22T09:52:46.020Z,1.38
2023-01-22T09:53:45.990Z,1.40
2023-01-22T09:54:46.006Z,1.41
2023-01-22T09:55:45.956Z,1.45
2023-01-22T09:56:45.984Z,1.49
2023-01-22T09:57:46.000Z,1.50
2023-01-22T09:58:45.943Z,1.50
2023-01-22T09:59:45.978Z,1.53
2023-01-22T10:00:45.925Z,1.53
2023-01-22T10:01:45.893Z,1.55
2023-01-22T10:02:45.940Z,1.53
2023-01-22T10:03:45.869Z,1.53
2023-01-22T10:04:45.885Z,1.56
2023-01-22T10:05:45.906Z,1.59
2023-01-22T10:06:45.861Z,1.56
2023-01-22T10:07:45.884Z,1.55
2023-01-22T10:08:45.870Z,1.50
2023-01-22T10:09:45.798Z,1.48
2023-01-22T10:10:45.823Z,1.42
2023-01-22T10:11:45.788Z,1.44
2023-01-22T10:12:45.803Z,1.44
2023-01-22T10:13:45.777Z,1.42
2023-01-22T10:14:45.763Z,1.41
2023-01-22T10:15:45.717Z,1.41
2023-01-22T10:16:45.928Z,1.40
2023-01-22T10:17:45.693Z,1.41
2023-01-22T10:18:45.721Z,1.41
2023-01-22T10:19:45.669Z,1.41
2023-01-22T10:20:45.718Z,1.42
2023-01-22T10:21:45.686Z,1.40
2023-01-22T10:22:45.720Z,1.38
2023-01-22T10:23:45.646Z,1.38
2023-01-22T10:24:45.634Z,1.32
2023-01-22T10:25:45.588Z,1.28
2023-01-22T10:26:45.615Z,1.24
2023-01-22T10:27:45.567Z,1.22
2023-01-22T10:28:45.605Z,1.22
2023-01-22T10:29:45.556Z,1.22
2023-01-22T10:30:45.579Z,1.22
2023-01-22T10:31:45.659Z,1.23
2023-01-22T10:32:45.526Z,1.23
2023-01-22T10:33:45.494Z,1.26
2023-01-22T10:34:45.553Z,1.28
2023-01-22T10:35:45.466Z,1.30
2023-01-22T10:36:45.498Z,1.31
2023-01-22T10:37:45.470Z,1.35
2023-01-22T10:38:45.503Z,1.35
2023-01-22T10:39:45.506Z,1.34
2023-01-22T10:40:45.491Z,1.28
2023-01-22T10:41:45.445Z,1.26
2023-01-22T10:42:45.408Z,1.30
2023-01-22T10:43:45.418Z,1.31
2023-01-22T10:44:45.423Z,1.31
2023-01-22T10:45:45.376Z,1.30
2023-01-22T10:46:45.373Z,1.30
2023-01-22T10:47:45.372Z,1.30
2023-01-22T10:48:45.364Z,1.30
2023-01-22T10:49:45.339Z,1.31
2023-01-22T10:50:45.346Z,1.35
2023-01-22T10:51:45.292Z,1.44
2023-01-22T10:52:45.324Z,1.52
2023-01-22T10:53:45.325Z,1.59
2023-01-22T10:54:45.250Z,1.67
2023-01-22T10:55:45.231Z,1.71
2023-01-22T10:56:45.209Z,1.73
2023-01-22T10:57:45.230Z,1.73
2023-01-22T10:58:45.199Z,1.71
2023-01-22T10:59:45.268Z,1.70
2023-01-22T11:00:52.358Z,1.67
2023-01-22T11:01:46.165Z,1.63
2023-01-22T11:02:45.213Z,1.62
2023-01-22T11:03:45.178Z,1.59
2023-01-22T11:04:45.141Z,1.55
2023-01-22T11:05:45.145Z,1.53
2023-01-22T11:06:45.100Z,1.52
2023-01-22T11:07:45.134Z,1.50
2023-01-22T11:08:45.062Z,1.53
2023-01-22T11:09:45.083Z,1.55
2023-01-22T11:10:45.160Z,1.56
2023-01-22T11:11:45.073Z,1.58
2023-01-22T11:12:45.037Z,1.58
2023-01-22T11:13:45.049Z,1.58
2023-01-22T11:14:44.991Z,1.60
2023-01-22T11:15:45.031Z,1.62
2023-01-22T11:16:44.958Z,1.63
2023-01-22T11:17:45.010Z,1.63
2023-01-22T11:18:44.945Z,1.66
2023-01-22T11:19:46.123Z,1.63
2023-01-22T11:20:44.924Z,1.60
2023-01-22T11:21:44.927Z,1.60
2023-01-22T11:22:44.894Z,1.60
2023-01-22T11:23:44.926Z,1.60
2023-01-22T11:24:44.863Z,1.62
2023-01-22T11:25:44.884Z,1.63
2023-01-22T11:26:44.839Z,1.63
2023-01-22T11:27:44.852Z,1.66
2023-01-22T11:28:44.821Z,1.67
2023-01-22T11:29:44.844Z,1.66
2023-01-22T11:30:44.903Z,1.62
2023-01-22T11:31:44.828Z,1.63
2023-01-22T11:32:44.759Z,1.62
2023-01-22T11:33:44.770Z,1.63
2023-01-22T11:34:44.745Z,1.62
2023-01-22T11:35:44.771Z,1.60
2023-01-22T11:36:44.731Z,1.62
2023-01-22T11:37:44.726Z,1.66
2023-01-22T11:38:44.686Z,1.67
2023-01-22T11:39:44.792Z,1.68
2023-01-22T11:40:44.665Z,1.70
2023-01-22T11:41:44.686Z,1.68
2023-01-22T11:42:44.644Z,1.71
2023-01-22T11:43:44.663Z,1.76
2023-01-22T11:44:44.613Z,1.77
2023-01-22T11:45:44.632Z,1.77
2023-01-22T11:46:44.619Z,1.80
2023-01-22T11:47:44.605Z,1.84
2023-01-22T11:48:44.594Z,1.84
2023-01-22T11:49:44.602Z,1.80
2023-01-22T11:50:44.541Z,1.74
2023-01-22T11:51:44.550Z,1.70
2023-01-22T11:52:44.538Z,1.70
2023-01-22T11:53:44.519Z,1.70
2023-01-22T11:54:44.485Z,1.71
2023-01-22T11:55:44.488Z,1.73
2023-01-22T11:56:44.459Z,1.74
2023-01-22T11:57:44.467Z,1.78
2023-01-22T11:58:44.453Z,1.80
2023-01-22T11:59:44.452Z,1.80
2023-01-22T12:00:44.415Z,1.80
2023-01-22T12:01:44.421Z,1.80
2023-01-22T12:02:44.416Z,1.81
2023-01-22T12:03:44.443Z,1.80
2023-01-22T12:04:44.361Z,1.78
2023-01-22T12:05:44.378Z,1.80
2023-01-22T12:06:44.331Z,1.80
2023-01-22T12:07:44.337Z,1.84
2023-01-22T12:08:44.312Z,1.84
2023-01-22T12:09:44.358Z,1.80
2023-01-22T12:10:44.304Z,1.77
2023-01-22T12:11:44.285Z,1.73
2023-01-22T12:12:44.273Z,1.70
2023-01-22T12:13:44.336Z,1.63
2023-01-22T12:14:44.235Z,1.58
2023-01-22T12:15:44.320Z,1.55
2023-01-22T12:16:44.244Z,1.53
2023-01-22T12:17:44.221Z,1.52
2023-01-22T12:18:44.183Z,1.53
2023-01-22T12:19:44.201Z,1.50
2023-01-22T12:20:44.153Z,1.52
2023-01-22T12:21:44.185Z,1.52
2023-01-22T12:22:44.171Z,1.52
2023-01-22T12:23:44.150Z,1.52
2023-01-22T12:24:44.113Z,1.56
2023-01-22T12:25:44.108Z,1.59
2023-01-22T12:26:44.087Z,1.62
2023-01-22T12:27:44.136Z,1.67
2023-01-22T12:28:44.076Z,1.70
2023-01-22T12:29:44.064Z,1.71
2023-01-22T12:30:44.049Z,1.74
2023-01-22T12:31:44.132Z,1.77
2023-01-22T12:32:44.046Z,1.84
2023-01-22T12:33:44.025Z,1.85
2023-01-22T12:34:43.995Z,1.91
2023-01-22T12:35:44.011Z,1.94
2023-01-22T12:36:43.986Z,1.97
2023-01-22T12:37:43.974Z,1.97
2023-01-22T12:38:43.952Z,1.95
2023-01-22T12:39:43.938Z,2.00
2023-01-22T12:40:43.932Z,2.00
2023-01-22T12:41:43.929Z,2.00
2023-01-22T12:42:43.887Z,1.97
2023-01-22T12:43:43.898Z,1.94
2023-01-22T12:44:43.873Z,1.91
2023-01-22T12:45:43.907Z,1.89
2023-01-22T12:46:43.870Z,1.88
2023-01-22T12:47:43.848Z,1.84
2023-01-22T12:48:43.813Z,1.81
2023-01-22T12:49:43.820Z,1.80
2023-01-22T12:50:43.783Z,1.73
2023-01-22T12:51:43.819Z,1.71
2023-01-22T12:52:43.887Z,1.71
2023-01-22T12:53:43.796Z,1.73
2023-01-22T12:54:43.731Z,1.73
2023-01-22T12:55:44.418Z,1.74
2023-01-22T12:56:43.731Z,1.74
2023-01-22T12:57:43.749Z,1.74
2023-01-22T12:58:43.691Z,1.73
2023-01-22T12:59:43.724Z,1.74
2023-01-22T13:00:43.679Z,1.73
2023-01-22T13:01:43.751Z,1.73
2023-01-22T13:02:43.687Z,1.70
2023-01-22T13:03:43.636Z,1.68
2023-01-22T13:04:43.604Z,1.68
2023-01-22T13:05:43.623Z,1.67
2023-01-22T13:06:43.597Z,1.67
2023-01-22T13:07:43.601Z,1.67
2023-01-22T13:08:43.588Z,1.66